createdAt,value
2022-08-12T00:00:27.305Z,100503.63
2022-08-12T00:04:47.445Z,100511.69
2022-08-12T00:09:07.920Z,100504.00
2022-08-12T00:13:28.147Z,100511.69
2022-08-12T00:17:48.783Z,100507.31
2022-08-12T00:22:09.063Z,100510.75
2022-08-12T00:26:33.200Z,100512.47
2022-08-12T00:30:54.279Z,100510.19
2022-08-12T00:35:14.431Z,100516.84
2022-08-12T00:39:34.977Z,100517.13
2022-08-12T00:43:37.131Z,100521.28
2022-08-12T00:47:39.204Z,100518.19
2022-08-12T00:51:59.285Z,100522.38
2022-08-12T00:56:01.488Z,100521.19
2022-08-12T01:00:12.004Z,100523.53
2022-08-12T01:04:32.709Z,100521.06
2022-08-12T01:08:54.730Z,100509.44
2022-08-12T01:13:07.249Z,100505.66
2022-08-12T01:17:22.378Z,100508.09
2022-08-12T01:21:27.191Z,100514.81
2022-08-12T01:25:29.606Z,100518.28
2022-08-12T01:29:34.601Z,100523.69
2022-08-12T01:34:28.716Z,100521.75
2022-08-12T01:38:29.968Z,100512.94
2022-08-12T01:42:42.106Z,100506.28
2022-08-12T01:46:59.896Z,100497.34
2022-08-12T01:52:20.048Z,100499.72
2022-08-12T01:55:48.624Z,100502.75
2022-08-12T01:59:59.293Z,100494.69
2022-08-12T02:04:40.784Z,100497.69
2022-08-12T02:09:13.435Z,100495.47
2022-08-12T02:13:48.640Z,100497.50
2022-08-12T02:18:13.015Z,100498.16
2022-08-12T02:22:37.100Z,100498.03
2022-08-12T02:26:40.473Z,100477.41
2022-08-12T02:30:42.715Z,100479.38
2022-08-12T02:34:44.744Z,100477.03
2022-08-12T02:38:46.538Z,100477.63
2022-08-12T02:43:47.232Z,100474.44
2022-08-12T02:47:59.891Z,100465.91
2022-08-12T02:52:03.424Z,100463.63
2022-08-12T02:56:06.045Z,100469.13
2022-08-12T03:00:09.242Z,100449.22
2022-08-12T03:04:20.388Z,100457.81
2022-08-12T03:08:32.178Z,100459.34
2022-08-12T03:12:49.113Z,100462.19
2022-08-12T03:17:07.850Z,100483.25
2022-08-12T03:21:52.738Z,100482.38
2022-08-12T03:25:41.040Z,100494.28
2022-08-12T03:29:50.366Z,100499.59
2022-08-12T03:34:01.713Z,100502.53
2022-08-12T03:38:07.882Z,100506.84
2022-08-12T03:42:33.505Z,100501.84
2022-08-12T03:46:57.583Z,100505.13
2022-08-12T03:51:18.899Z,100498.72
2022-08-12T03:55:39.387Z,100503.13
2022-08-12T03:59:59.761Z,100500.47
2022-08-12T04:04:03.681Z,100501.38
2022-08-12T04:08:10.331Z,100504.59
2022-08-12T04:12:32.804Z,100495.09
2022-08-12T04:16:35.284Z,100496.69
2022-08-12T04:20:37.063Z,100502.69
2022-08-12T04:24:40.880Z,100515.22
2022-08-12T04:28:45.807Z,100511.84
2022-08-12T04:32:52.249Z,100523.13
2022-08-12T04:36:55.755Z,100504.84
2022-08-12T04:40:57.901Z,100500.06
2022-08-12T04:44:59.725Z,100496.63
2022-08-12T04:49:02.842Z,100499.38
2022-08-12T04:53:08.994Z,100494.09
2022-08-12T04:57:11.092Z,100496.25
2022-08-12T05:01:13.263Z,100494.25
2022-08-12T05:05:20.294Z,100471.63
2022-08-12T05:09:22.115Z,100485.31
2022-08-12T05:13:31.667Z,100496.84
2022-08-12T05:17:33.688Z,100500.38
2022-08-12T05:21:37.217Z,100497.19
2022-08-12T05:25:39.207Z,100497.91
2022-08-12T05:30:07.559Z,100495.63
2022-08-12T05:34:05.693Z,100502.06
2022-08-12T05:38:27.405Z,100506.44
2022-08-12T05:42:34.661Z,100497.00
2022-08-12T05:46:45.739Z,100502.81
2022-08-12T05:50:53.780Z,100498.09
2022-08-12T05:54:57.767Z,100516.25
2022-08-12T05:59:02.257Z,100512.03
2022-08-12T06:03:06.180Z,100505.25
2022-08-12T06:07:40.030Z,100503.09
2022-08-12T06:11:30.758Z,100505.16
2022-08-12T06:15:37.936Z,100515.13
2022-08-12T06:20:26.069Z,100507.00
2022-08-12T06:24:03.329Z,100526.28
2022-08-12T06:28:17.670Z,100523.84
2022-08-12T06:32:19.586Z,100519.28
2022-08-12T06:36:33.423Z,100516.53
2022-08-12T06:41:01.832Z,100535.25
2022-08-12T06:45:07.271Z,100521.31
2022-08-12T06:49:13.471Z,100529.81
2022-08-12T06:53:21.198Z,100537.31
2022-08-12T06:58:06.987Z,100524.59
2022-08-12T07:02:00.624Z,100526.50
2022-08-12T07:06:05.575Z,100508.56
2022-08-12T07:10:55.348Z,100511.69
2022-08-12T07:14:58.771Z,100511.97
2022-08-12T07:19:10.055Z,100517.19
2022-08-12T07:27:28.351Z,100522.75
2022-08-12T07:31:31.071Z,100535.78
2022-08-12T07:35:33.165Z,100549.09
2022-08-12T07:39:35.499Z,100540.19
2022-08-12T07:44:00.073Z,100551.84
2022-08-12T07:48:06.441Z,100542.88
2022-08-12T07:52:22.786Z,100547.03
2022-08-12T07:56:31.341Z,100537.28
2022-08-12T08:00:44.062Z,100539.91
2022-08-12T08:05:01.504Z,100524.25
2022-08-12T08:09:04.840Z,100533.56
2022-08-12T08:13:06.780Z,100520.31
2022-08-12T08:17:11.880Z,100544.53
2022-08-12T08:21:19.305Z,100519.50
2022-08-12T08:25:36.107Z,100521.41
2022-08-12T08:29:39.614Z,100527.19
2022-08-12T08:34:04.939Z,100529.66
2022-08-12T08:38:32.839Z,100530.16
2022-08-12T08:42:40.538Z,100515.59
2022-08-12T08:46:44.688Z,100507.22
2022-08-12T08:50:46.761Z,100513.59
2022-08-12T08:55:07.353Z,100503.97
2022-08-12T08:59:12.562Z,100490.00
2022-08-12T09:04:21.072Z,100488.31
2022-08-12T09:08:22.381Z,100483.16
2022-08-12T09:22:41.162Z,100473.31
2022-08-12T09:26:46.248Z,100481.00
2022-08-12T09:30:52.696Z,100479.56
2022-08-12T09:34:54.978Z,100463.50
2022-08-12T09:39:02.573Z,100461.00
2022-08-12T09:43:53.452Z,100462.31
2022-08-12T09:47:58.974Z,100465.59
2022-08-12T09:52:04.932Z,100461.78
2022-08-12T09:56:58.209Z,100457.28
2022-08-12T10:00:52.116Z,100458.88
2022-08-12T10:04:58.009Z,100432.47
2022-08-12T10:09:00.918Z,100442.19
2022-08-12T10:13:35.233Z,100437.00
2022-08-12T10:17:56.762Z,100441.03
2022-08-12T10:22:40.148Z,100422.50
2022-08-12T10:27:14.171Z,100425.16
2022-08-12T10:31:20.072Z,100426.44
2022-08-12T10:35:37.858Z,100419.00
2022-08-12T10:40:08.293Z,100416.88
2022-08-12T10:44:05.413Z,100401.44
2022-08-12T10:48:21.790Z,100411.97
2022-08-12T10:52:38.003Z,100421.13
2022-08-12T10:56:44.797Z,100409.22
2022-08-12T11:01:26.201Z,100404.91
2022-08-12T11:07:03.728Z,100402.50
2022-08-12T11:10:00.646Z,100394.56
2022-08-12T11:14:03.999Z,100380.13
2022-08-12T11:18:06.577Z,100384.81
2022-08-12T11:22:14.339Z,100374.84
2022-08-12T11:26:16.387Z,100394.94
2022-08-12T11:30:30.623Z,100362.38
2022-08-12T11:34:52.607Z,100382.84
2022-08-12T11:38:55.969Z,100373.91
2022-08-12T11:43:19.111Z,100366.31
2022-08-12T11:47:22.037Z,100359.38
2022-08-12T11:51:24.035Z,100358.50
2022-08-12T12:06:53.269Z,100345.84
2022-08-12T12:36:18.211Z,100313.34
2022-08-12T12:40:39.597Z,100308.97
2022-08-12T12:44:50.840Z,100319.16
2022-08-12T12:48:55.650Z,100335.72
2022-08-12T12:54:06.388Z,100314.13
2022-08-12T12:57:59.109Z,100301.84
2022-08-12T13:07:54.350Z,100305.66
2022-08-12T13:11:53.139Z,100312.66
2022-08-12T13:15:59.408Z,100290.22
2022-08-12T13:20:37.338Z,100284.34
2022-08-12T13:24:42.189Z,100286.69
2022-08-12T13:28:49.669Z,100265.72
2022-08-12T13:33:02.834Z,100270.78
2022-08-12T13:37:21.102Z,100269.66
2022-08-12T13:42:47.614Z,100271.56
2022-08-12T13:47:19.938Z,100252.56
2022-08-12T13:51:40.782Z,100261.41
2022-08-12T14:01:40.766Z,100251.06
2022-08-12T14:15:35.112Z,100230.53
2022-08-12T14:20:00.610Z,100230.22
2022-08-12T14:24:07.913Z,100227.22
2022-08-12T14:28:32.413Z,100222.97
2022-08-12T14:32:37.088Z,100214.34
2022-08-12T14:36:50.867Z,100220.44
2022-08-12T14:41:03.830Z,100189.34
2022-08-12T14:45:10.906Z,100216.53
2022-08-12T14:50:00.986Z,100204.09
2022-08-12T14:57:58.860Z,100213.97
2022-08-12T15:02:00.866Z,100224.78
2022-08-12T15:06:39.441Z,100211.88
2022-08-12T15:10:32.286Z,100200.03
2022-08-12T15:14:38.006Z,100193.41
2022-08-12T15:18:39.959Z,100186.13
2022-08-12T15:22:58.004Z,100189.81
2022-08-12T15:27:08.746Z,100198.38
2022-08-12T15:36:10.748Z,100184.81
2022-08-12T15:40:15.883Z,100174.31
2022-08-12T15:45:47.395Z,100187.06
2022-08-12T15:50:23.123Z,100180.78
2022-08-12T15:55:14.022Z,100180.31
2022-08-12T16:10:35.994Z,100169.25
2022-08-12T16:14:38.012Z,100174.69
2022-08-12T16:26:05.213Z,100182.91
2022-08-12T16:30:16.055Z,100182.09
2022-08-12T16:34:25.738Z,100175.75
2022-08-12T16:38:41.086Z,100175.41
2022-08-12T16:43:12.876Z,100155.41
2022-08-12T16:47:18.657Z,100173.59
2022-08-12T17:01:49.251Z,100155.22
2022-08-12T17:05:55.728Z,100149.66
2022-08-12T17:10:07.098Z,100129.47
2022-08-12T17:14:23.635Z,100143.78
2022-08-12T17:18:43.291Z,100143.00
2022-08-12T17:22:56.547Z,100141.75
2022-08-12T17:32:39.861Z,100133.22
2022-08-12T17:41:56.324Z,100144.09
2022-08-12T17:54:06.180Z,100156.75
2022-08-12T17:58:35.555Z,100151.22
2022-08-12T18:04:04.169Z,100158.69
2022-08-12T18:08:21.547Z,100153.50
2022-08-12T18:12:53.597Z,100160.44
2022-08-12T18:16:57.278Z,100157.31
2022-08-12T18:21:08.785Z,100164.84
2022-08-12T18:26:13.187Z,100172.66
2022-08-12T18:30:29.141Z,100168.63
2022-08-12T18:34:35.914Z,100175.56
2022-08-12T18:38:51.181Z,100181.84
2022-08-12T18:49:17.255Z,100184.06
2022-08-12T18:54:06.084Z,100182.31
2022-08-12T18:58:39.801Z,100182.53
2022-08-12T19:03:02.463Z,100195.47
2022-08-12T19:08:01.343Z,100196.78
2022-08-12T19:12:42.500Z,100206.78
2022-08-12T19:17:14.623Z,100195.47
2022-08-12T19:21:30.373Z,100203.38
2022-08-12T19:26:00.534Z,100205.34
2022-08-12T19:32:08.475Z,100216.22
2022-08-12T19:42:01.035Z,100219.66
2022-08-12T19:46:18.313Z,100210.94
2022-08-12T19:50:54.882Z,100191.41
2022-08-12T19:55:01.246Z,100203.88
2022-08-12T19:59:43.258Z,100209.38
2022-08-12T20:03:59.069Z,100212.66
2022-08-12T20:08:03.499Z,100208.22
2022-08-12T20:12:13.579Z,100205.53
2022-08-12T20:16:47.405Z,100210.78
2022-08-12T20:20:44.298Z,100211.09
2022-08-12T20:24:48.520Z,100217.50
2022-08-12T20:28:52.930Z,100216.59
2022-08-12T20:33:01.233Z,100213.38
2022-08-12T20:37:04.740Z,100221.06
2022-08-12T20:41:17.410Z,100207.09
2022-08-12T20:45:26.444Z,100219.38
2022-08-12T20:49:55.443Z,100220.63
2022-08-12T20:54:03.235Z,100214.72
2022-08-12T20:58:09.589Z,100223.59
2022-08-12T21:02:13.774Z,100227.34
2022-08-12T21:06:35.939Z,100215.28
2022-08-12T21:10:37.828Z,100223.50
2022-08-12T21:14:53.438Z,100218.22
2022-08-12T21:18:59.253Z,100227.09
2022-08-12T21:23:05.648Z,100215.06
2022-08-12T21:27:08.025Z,100217.75
2022-08-12T21:32:38.015Z,100219.19
2022-08-12T21:35:36.008Z,100236.00
2022-08-12T21:39:47.937Z,100219.25
2022-08-12T21:44:01.039Z,100238.06
2022-08-12T21:48:08.722Z,100232.78
2022-08-12T21:52:13.777Z,100231.19
2022-08-12T21:56:34.668Z,100228.06
2022-08-12T22:00:39.614Z,100233.22
2022-08-12T22:05:00.501Z,100226.09
2022-08-12T22:09:11.254Z,100230.59
2022-08-12T22:14:07.877Z,100249.00
2022-08-12T22:17:50.426Z,100247.59
2022-08-12T22:21:58.635Z,100237.16
2022-08-12T22:26:00.855Z,100243.06
2022-08-12T22:30:20.973Z,100256.97
2022-08-12T22:34:27.291Z,100245.72
2022-08-12T22:38:31.544Z,100241.03
2022-08-12T22:42:59.378Z,100249.81
2022-08-12T22:47:53.218Z,100248.38
2022-08-12T22:52:03.252Z,100251.41
2022-08-12T22:56:08.722Z,100259.41
2022-08-12T23:00:24.524Z,100247.09
2022-08-12T23:04:29.448Z,100250.16
2022-08-12T23:08:31.913Z,100247.50
2022-08-12T23:12:52.363Z,100244.38
2022-08-12T23:16:55.974Z,100252.56
2022-08-12T23:20:59.374Z,100241.91
2022-08-12T23:25:01.343Z,100249.00
2022-08-12T23:29:29.966Z,100242.66
2022-08-12T23:34:00.708Z,100240.84
2022-08-12T23:37:59.600Z,100246.13
2022-08-12T23:42:17.625Z,100239.34
2022-08-12T23:46:25.712Z,100238.69
2022-08-12T23:50:34.074Z,100234.44
2022-08-12T23:54:44.461Z,100224.63
2022-08-12T23:58:58.437Z,100231.97
